Time;durP1;ratioP1;P1;durP2;ratioP2;P2;SDS_P1;SDS_P2;PMS_P1;PMS_P2;Temp;Humidity;BMP_temperature;BMP_pressure;BME280_temperature;BME280_humidity;BME280_pressure;Samples;Min_cycle;Max_cycle;Signal;HPM_P1;HPM_P2
2022/10/05 00:00:14;;;;;;;16.95;8.80;;;;;;;15.39;75.11;101636.72;4982402;28;20017;-56
2022/10/05 00:02:43;;;;;;;19.27;9.32;;;;;;;15.33;75.27;101640.69;4989434;28;20022;-57
2022/10/05 00:05:22;;;;;;;11.88;8.75;;;;;;;15.34;75.16;101634.34;4989745;28;20034;-56
2022/10/05 00:07:48;;;;;;;14.40;9.00;;;;;;;15.31;75.64;101634.56;4990467;28;20423;-56
2022/10/05 00:10:17;;;;;;;10.82;8.63;;;;;;;15.36;75.38;101634.25;4991238;28;20500;-56
2022/10/05 00:12:45;;;;;;;14.93;8.88;;;;;;;15.28;75.62;101632.09;4990781;28;20483;-56
2022/10/05 00:15:12;;;;;;;14.23;9.13;;;;;;;15.26;75.69;101634.03;4990252;28;20054;-56
2022/10/05 00:17:37;;;;;;;13.63;8.95;;;;;;;15.26;76.04;101630.50;4981211;28;20485;-56
2022/10/05 00:20:17;;;;;;;12.35;9.23;;;;;;;15.26;75.82;101627.81;4972784;28;20109;-55
2022/10/05 00:22:42;;;;;;;;;;;;;;;15.34;74.72;101623.63;4989811;28;20069;-56
2022/10/05 00:25:17;;;;;;;16.65;9.48;;;;;;;15.20;76.08;101608.50;4990298;28;19942;-56
2022/10/05 00:27:47;;;;;;;12.95;9.68;;;;;;;15.19;76.34;101614.00;4990411;28;20092;-57
2022/10/05 00:30:18;;;;;;;10.13;9.07;;;;;;;15.15;76.54;101617.88;4988593;28;20488;-56
2022/10/05 00:32:44;;;;;;;14.65;9.15;;;;;;;15.10;76.88;101620.00;4990896;28;20468;-57
2022/10/05 00:35:12;;;;;;;12.82;9.63;;;;;;;15.05;76.83;101606.91;4989660;28;20385;-56
2022/10/05 00:37:38;;;;;;;12.20;9.20;;;;;;;15.16;76.85;101620.44;4990359;28;20027;-56
2022/10/05 00:40:19;;;;;;;15.68;10.32;;;;;;;15.10;77.07;101611.97;4991798;28;20042;-57
2022/10/05 00:43:33;;;;;;;16.38;9.70;;;;;;;15.15;76.54;101620.56;5000239;28;20022;-56
2022/10/05 00:46:16;;;;;;;11.93;10.30;;;;;;;15.12;76.78;101612.72;4995145;28;20042;-57
2022/10/05 00:48:50;;;;;;;12.90;9.65;;;;;;;15.08;77.16;101616.56;4988905;28;20022;-56
2022/10/05 00:51:22;;;;;;;12.50;9.43;;;;;;;15.11;77.22;101616.34;4990244;28;20164;-57
2022/10/05 00:53:56;;;;;;;18.67;9.45;;;;;;;15.10;77.20;101612.81;4988911;28;20030;-56
2022/10/05 00:56:33;;;;;;;11.57;9.43;;;;;;;15.07;77.27;101607.69;4990071;28;20026;-56
2022/10/05 00:59:31;;;;;;;16.55;9.50;;;;;;;15.12;76.92;101613.56;4989519;28;20061;-56
2022/10/05 01:01:59;;;;;;;13.32;9.50;;;;;;;15.02;77.45;101615.16;4983169;28;20038;-56
2022/10/05 01:04:49;;;;;;;13.15;8.75;;;;;;;15.06;77.43;101614.00;4994577;28;20041;-57
2022/10/05 01:07:26;;;;;;;15.43;9.27;;;;;;;15.03;77.70;101608.88;5008873;28;20026;-56
2022/10/05 01:10:21;;;;;;;13.82;9.95;;;;;;;14.97;77.69;101594.06;4969852;28;20027;-57
2022/10/05 01:13:23;;;;;;;16.67;9.20;;;;;;;14.99;77.75;101599.31;4970157;28;20075;-56
2022/10/05 01:16:18;;;;;;;12.63;9.90;;;;;;;14.98;77.43;101593.09;4984327;28;20057;-56
2022/10/05 01:18:55;;;;;;;13.07;9.73;;;;;;;14.85;78.30;101577.97;4982288;28;20030;-56
2022/10/05 01:21:24;;;;;;;15.10;9.43;;;;;;;14.86;78.34;101585.06;5008864;28;20029;-57
2022/10/05 01:24:15;;;;;;;16.15;10.73;;;;;;;14.83;78.71;101578.09;5008593;28;20553;-56
2022/10/05 01:27:22;;;;;;;15.57;10.38;;;;;;;14.90;78.11;101587.41;5005995;28;20049;-56
2022/10/05 01:29:57;;;;;;;14.18;10.18;;;;;;;14.86;78.43;101577.03;4969798;28;20497;-56
2022/10/05 01:32:49;;;;;;;13.68;9.73;;;;;;;14.83;78.44;101575.41;4988639;28;20358;-57
2022/10/05 01:35:34;;;;;;;15.48;9.95;;;;;;;14.81;78.73;101582.69;4988835;28;20118;-57
2022/10/05 01:38:14;;;;;;;13.23;9.73;;;;;;;14.89;78.65;101582.19;4989190;28;20038;-57
2022/10/05 01:40:42;;;;;;;13.50;9.48;;;;;;;14.88;78.77;101575.97;4990750;28;20477;-56
2022/10/05 01:43:07;;;;;;;16.75;9.65;;;;;;;14.88;78.42;101567.94;4990853;28;20453;-56
2022/10/05 01:45:36;;;;;;;13.75;9.40;;;;;;;14.84;78.84;101574.44;5001996;28;20046;-56
2022/10/05 01:48:35;;;;;;;13.30;9.48;;;;;;;14.87;78.70;101565.34;4988426;28;20034;-57
2022/10/05 01:51:15;;;;;;;13.88;9.48;;;;;;;14.82;78.77;101562.97;4970775;28;20030;-56
2022/10/05 01:53:40;;;;;;;11.32;8.98;;;;;;;14.83;78.52;101558.50;5005924;28;20091;-56
2022/10/05 01:56:29;;;;;;;11.85;9.48;;;;;;;14.78;78.47;101553.44;5008847;28;20414;-56
2022/10/05 01:59:00;;;;;;;14.02;9.52;;;;;;;14.79;78.92;101555.16;5010493;28;20026;-56
2022/10/05 02:01:44;;;;;;;13.23;9.70;;;;;;;14.82;78.76;101548.72;4999980;28;20039;-57
2022/10/05 02:04:19;;;;;;;11.82;9.02;;;;;;;14.78;79.00;101540.06;4993056;28;20061;-57
2022/10/05 02:06:47;;;;;;;16.30;9.63;;;;;;;14.77;79.17;101544.56;4992334;28;20448;-56
2022/10/05 02:09:19;;;;;;;14.57;10.13;;;;;;;14.75;79.12;101548.31;4995229;28;20055;-57
2022/10/05 02:11:55;;;;;;;11.00;9.23;;;;;;;14.74;79.13;101536.75;5010458;28;20033;-56
2022/10/05 02:14:39;;;;;;;14.30;9.52;;;;;;;14.68;79.24;101525.63;4972715;28;20038;-56
2022/10/05 02:17:11;;;;;;;11.07;8.65;;;;;;;14.72;79.15;101525.28;4985664;28;20478;-57
2022/10/05 02:19:41;;;;;;;13.80;9.30;;;;;;;14.69;79.02;101528.16;4992155;28;20365;-57
2022/10/05 02:22:06;;;;;;;;;;;;;;;14.81;78.19;101530.97;4992558;28;20110;-57
2022/10/05 02:24:38;;;;;;;11.05;9.13;;;;;;;14.73;79.20;101526.97;4991992;28;20371;-56
2022/10/05 02:27:07;;;;;;;15.23;9.73;;;;;;;14.68;79.25;101531.81;4974724;28;20057;-56
2022/10/05 02:29:36;;;;;;;9.82;8.23;;;;;;;14.63;79.50;101519.72;4992183;28;20029;-56
2022/10/05 02:32:10;;;;;;;10.82;8.38;;;;;;;14.69;78.96;101521.97;4978933;28;20030;-56
2022/10/05 02:34:38;;;;;;;12.93;8.55;;;;;;;14.65;79.29;101524.00;4991031;28;20388;-56
2022/10/05 02:37:42;;;;;;;9.88;7.90;;;;;;;14.70;79.11;101513.81;4972906;28;20466;-56
2022/10/05 02:40:07;;;;;;;13.20;8.48;;;;;;;14.69;79.22;101512.09;4992801;28;20109;-57
2022/10/05 02:42:38;;;;;;;12.95;8.80;;;;;;;14.68;79.33;101512.22;4991082;28;20038;-57
2022/10/05 02:45:06;;;;;;;13.45;9.02;;;;;;;14.74;79.13;101506.44;4991002;28;20034;-56
2022/10/05 02:47:41;;;;;;;11.88;8.07;;;;;;;14.75;79.25;101503.63;4991051;28;20113;-56
2022/10/05 02:50:36;;;;;;;17.30;8.15;;;;;;;14.71;79.49;101490.59;4992086;28;20030;-56
2022/10/05 02:53:13;;;;;;;12.35;8.48;;;;;;;14.70;79.54;101494.22;4990062;28;20436;-56
2022/10/05 02:55:48;;;;;;;10.35;8.35;;;;;;;14.71;79.34;101496.78;4990537;28;20038;-56
2022/10/05 02:58:15;;;;;;;10.23;8.73;;;;;;;14.67;79.46;101495.28;4974184;28;20496;-56
2022/10/05 03:00:46;;;;;;;14.68;8.50;;;;;;;14.57;79.42;101474.63;4975570;28;20029;-56
2022/10/05 03:03:42;;;;;;;10.32;8.57;;;;;;;14.66;79.43;101485.53;4977171;28;20121;-56
2022/10/05 03:06:26;;;;;;;10.57;8.30;;;;;;;14.64;79.62;101479.44;4971956;28;20069;-56
2022/10/05 03:09:02;;;;;;;10.55;8.25;;;;;;;14.58;79.72;101479.84;4965466;28;20027;-56
2022/10/05 03:11:45;;;;;;;11.15;8.68;;;;;;;14.57;80.09;101480.84;4991797;28;20030;-56
2022/10/05 03:14:30;;;;;;;12.57;8.75;;;;;;;14.54;80.16;101481.91;4990587;28;20022;-55
2022/10/05 03:17:02;;;;;;;10.18;7.75;;;;;;;14.54;80.35;101473.88;4980271;28;20398;-56
2022/10/05 03:19:40;;;;;;;16.20;8.55;;;;;;;14.58;80.30;101470.97;4990860;28;20046;-56
2022/10/05 03:22:30;;;;;;;11.63;8.63;;;;;;;14.58;80.04;101470.97;4992513;28;20027;-56
2022/10/05 03:25:02;;;;;;;14.43;8.55;;;;;;;14.52;80.44;101473.13;4993281;28;20052;-56
2022/10/05 03:28:02;;;;;;;9.95;8.10;;;;;;;14.56;80.16;101465.75;4993478;28;20027;-56
2022/10/05 03:30:38;;;;;;;15.20;8.75;;;;;;;14.52;80.37;101470.44;4989566;28;20087;-56
2022/10/05 03:33:10;;;;;;;11.90;8.35;;;;;;;14.50;80.55;101471.47;4991419;28;20427;-56
2022/10/05 03:35:45;;;;;;;11.20;8.70;;;;;;;14.49;80.43;101475.97;4974539;28;20037;-56
2022/10/05 03:38:20;;;;;;;10.45;8.73;;;;;;;14.48;80.88;101478.78;4973661;28;20030;-56
2022/10/05 03:40:49;;;;;;;11.63;8.77;;;;;;;14.42;80.85;101471.16;4991070;28;20026;-57
2022/10/05 03:43:17;;;;;;;16.73;9.27;;;;;;;14.40;80.95;101467.72;4991132;28;20053;-56
2022/10/05 03:45:53;;;;;;;12.43;9.00;;;;;;;14.32;80.95;101463.78;4999605;28;20496;-57
2022/10/05 03:48:30;;;;;;;12.55;9.77;;;;;;;14.40;81.15;101463.22;5010249;28;20026;-56
2022/10/05 03:51:22;;;;;;;10.02;8.98;;;;;;;14.41;81.01;101473.00;5010421;28;20061;-56
2022/10/05 03:53:54;;;;;;;11.95;8.90;;;;;;;14.47;80.85;101474.34;4972114;28;20045;-56
2022/10/05 03:56:29;;;;;;;12.60;9.60;;;;;;;14.44;80.76;101474.56;4983895;28;20054;-57
2022/10/05 03:59:18;;;;;;;10.40;9.27;;;;;;;14.42;81.07;101471.16;4999288;28;20022;-56
2022/10/05 04:01:49;;;;;;;12.38;8.65;;;;;;;14.42;81.12;101480.06;4989293;28;20034;-56
2022/10/05 04:04:25;;;;;;;13.38;10.10;;;;;;;14.39;81.28;101471.38;4989130;28;20022;-56
2022/10/05 04:06:52;;;;;;;14.90;10.27;;;;;;;14.36;81.32;101475.13;4990054;28;20477;-56
2022/10/05 04:09:24;;;;;;;13.98;10.15;;;;;;;14.35;81.40;101480.56;4990624;28;20036;-56
2022/10/05 04:11:59;;;;;;;11.38;9.75;;;;;;;14.33;81.56;101475.34;4997926;28;20030;-56
2022/10/05 04:14:31;;;;;;;11.60;10.25;;;;;;;14.31;81.57;101480.78;5009935;28;20502;-55
2022/10/05 04:17:13;;;;;;;13.32;9.88;;;;;;;14.39;81.21;101474.06;4978300;28;20043;-56
2022/10/05 04:20:29;;;;;;;13.18;10.75;;;;;;;14.39;81.22;101474.91;4972818;28;20474;-57
2022/10/05 04:23:28;;;;;;;13.38;11.07;;;;;;;14.35;81.34;101476.06;4941843;28;20081;-56
2022/10/05 04:26:01;;;;;;;17.30;10.60;;;;;;;14.30;81.79;101478.22;4936806;28;20146;-57
2022/10/05 04:28:53;;;;;;;12.05;10.77;;;;;;;14.31;81.34;101469.22;4982229;28;20512;-57
2022/10/05 04:31:57;;;;;;;12.23;9.77;;;;;;;14.30;81.49;101465.69;4990049;28;20057;-56
2022/10/05 04:34:53;;;;;;;18.90;10.68;;;;;;;14.30;81.80;101464.84;4991476;28;20092;-57
2022/10/05 04:37:30;;;;;;;13.23;10.63;;;;;;;14.28;81.81;101464.09;4990277;28;20100;-56
2022/10/05 04:39:55;;;;;;;14.70;10.40;;;;;;;14.26;81.90;101463.31;4989829;28;20401;-56
2022/10/05 04:42:37;;;;;;;14.88;10.48;;;;;;;14.27;81.82;101455.19;4989373;28;20029;-56
2022/10/05 04:45:22;;;;;;;12.82;10.30;;;;;;;14.25;81.67;101448.25;4992203;28;20026;-57
2022/10/05 04:48:36;;;;;;;12.77;9.35;;;;;;;14.28;81.41;101453.38;4989722;28;20491;-56
2022/10/05 04:51:43;;;;;;;11.13;9.35;;;;;;;14.24;81.25;101452.75;5005013;28;20080;-56
2022/10/05 04:54:29;;;;;;;12.15;9.48;;;;;;;14.24;81.47;101444.72;4994966;28;20409;-57
2022/10/05 04:56:58;;;;;;;10.45;8.52;;;;;;;14.25;81.10;101448.25;4972503;28;20065;-56
2022/10/05 04:59:42;;;;;;;13.85;8.65;;;;;;;14.27;81.32;101454.34;4988905;28;20083;-56
2022/10/05 05:02:23;;;;;;;10.40;7.95;;;;;;;14.25;80.75;101449.09;4987412;28;20042;-56
2022/10/05 05:04:51;;;;;;;8.50;7.60;;;;;;;14.27;80.81;101443.66;4990085;28;20030;-56
2022/10/05 05:07:40;;;;;;;9.48;8.48;;;;;;;14.28;80.89;101448.03;4989807;28;20034;-56
2022/10/05 05:10:34;;;;;;;8.98;7.75;;;;;;;14.26;81.08;101449.94;4970507;28;20057;-57
2022/10/05 05:12:59;;;;;;;8.43;7.18;;;;;;;14.30;80.81;101444.28;4973765;28;20040;-56
2022/10/05 05:15:31;;;;;;;11.63;7.90;;;;;;;14.29;81.08;101447.94;4989022;28;20054;-56
2022/10/05 05:18:18;;;;;;;7.78;6.95;;;;;;;14.27;80.65;101443.66;4989797;28;20031;-56
2022/10/05 05:20:52;;;;;;;9.68;8.05;;;;;;;14.28;80.61;101440.84;4952501;28;20035;-56
2022/10/05 05:23:31;;;;;;;9.63;7.70;;;;;;;14.28;80.42;101440.84;4970092;28;20505;-56
2022/10/05 05:26:03;;;;;;;9.13;7.38;;;;;;;14.25;80.90;101440.22;4969973;28;20121;-56
2022/10/05 05:28:38;;;;;;;8.80;7.80;;;;;;;14.27;80.47;101443.66;4972995;28;20182;-57
2022/10/05 05:31:48;;;;;;;10.52;7.40;;;;;;;14.28;80.64;101440.00;4991519;28;20026;-55
2022/10/05 05:34:52;;;;;;;10.88;7.80;;;;;;;14.24;80.61;101436.69;4975975;28;20130;-57
2022/10/05 05:37:40;;;;;;;9.93;7.13;;;;;;;14.24;80.92;101433.16;4988227;28;20109;-57
2022/10/05 05:40:08;;;;;;;10.13;7.50;;;;;;;14.20;80.62;101437.84;4982071;28;20083;-56
2022/10/05 05:42:43;;;;;;;8.73;7.65;;;;;;;14.19;81.22;101430.78;4989476;28;20040;-56
2022/10/05 05:45:40;;;;;;;9.43;7.45;;;;;;;14.25;80.55;101421.47;4988234;28;20030;-56
2022/10/05 05:48:32;;;;;;;7.78;6.53;;;;;;;14.20;81.16;101426.28;4989241;28;20038;-56
2022/10/05 05:51:24;;;;;;;8.60;6.80;;;;;;;14.21;80.70;101420.00;5001227;28;20121;-56
2022/10/05 05:53:56;;;;;;;12.77;6.80;;;;;;;14.20;80.83;101426.28;4969641;28;20466;-56
2022/10/05 05:56:36;;;;;;;11.35;6.63;;;;;;;14.21;80.58;101420.84;4969831;28;20602;-56
2022/10/05 05:59:09;;;;;;;10.88;6.68;;;;;;;14.17;80.95;101421.16;4972910;28;20031;-56
2022/10/05 06:01:39;;;;;;;8.27;6.03;;;;;;;14.19;80.46;101421.91;5002426;28;20034;-56
2022/10/05 06:04:13;;;;;;;10.57;5.90;;;;;;;14.19;80.54;101422.75;5008162;28;20456;-56
2022/10/05 06:06:43;;;;;;;8.82;6.32;;;;;;;14.17;80.09;101419.31;5008517;28;20022;-56
2022/10/05 06:09:32;;;;;;;6.80;5.70;;;;;;;14.21;80.28;101415.50;4992234;28;20022;-56
2022/10/05 06:12:06;;;;;;;7.10;5.93;;;;;;;14.17;80.69;101422.00;4995280;28;20499;-56
2022/10/05 06:14:37;;;;;;;9.32;5.95;;;;;;;14.17;80.35;101422.00;4990242;28;20030;-56
2022/10/05 06:17:10;;;;;;;6.68;5.93;;;;;;;14.18;80.06;101425.56;4987251;28;21691;-57
2022/10/05 06:19:39;;;;;;;7.75;6.05;;;;;;;14.14;80.33;101406.16;4987652;28;20034;-56
2022/10/05 06:22:23;;;;;;;8.05;6.07;;;;;;;14.24;80.14;101415.28;4981186;28;20120;-56
2022/10/05 06:25:12;;;;;;;9.52;5.65;;;;;;;14.23;80.44;101412.69;4990350;28;20451;-56
2022/10/05 06:27:57;;;;;;;7.20;5.87;;;;;;;14.23;80.07;101413.56;5008569;28;20041;-56
2022/10/05 06:30:22;;;;;;;7.43;5.70;;;;;;;14.24;80.13;101415.28;4988234;28;20113;-56
2022/10/05 06:33:10;;;;;;;7.63;5.78;;;;;;;14.28;80.16;101415.91;4971481;28;20121;-57
2022/10/05 06:35:51;;;;;;;9.40;5.90;;;;;;;14.25;80.19;101414.31;4969625;28;20083;-56
2022/10/05 06:38:28;;;;;;;8.25;6.00;;;;;;;14.27;80.16;101411.53;4969220;28;20393;-56
2022/10/05 06:41:18;;;;;;;9.68;5.70;;;;;;;14.29;80.17;101423.84;4981913;28;20049;-56
2022/10/05 06:44:13;;;;;;;8.40;5.30;;;;;;;14.32;79.90;101418.28;4989350;28;20037;-56
2022/10/05 06:46:44;;;;;;;10.85;5.88;;;;;;;14.28;80.25;101414.09;4990701;28;20105;-57
2022/10/05 06:49:16;;;;;;;6.68;5.85;;;;;;;14.27;80.30;101420.41;4971535;28;20029;-56
2022/10/05 06:51:50;;;;;;;7.70;6.32;;;;;;;14.28;80.24;101416.78;4989859;28;20062;-56
2022/10/05 06:54:42;;;;;;;7.90;6.10;;;;;;;14.30;80.26;101424.72;4996100;28;20034;-57
2022/10/05 06:57:26;;;;;;;8.38;6.40;;;;;;;14.32;80.39;101412.94;4999815;28;20273;-56
2022/10/05 07:00:00;;;;;;;7.53;6.03;;;;;;;14.36;79.91;101426.94;4992731;28;20091;-56
2022/10/05 07:02:34;;;;;;;8.65;6.35;;;;;;;14.39;80.00;101429.41;4991567;28;20093;-56
2022/10/05 07:05:18;;;;;;;8.02;5.75;;;;;;;14.41;79.99;101426.63;4990024;28;20435;-56
2022/10/05 07:07:54;;;;;;;8.82;6.18;;;;;;;14.43;79.96;101424.69;4991698;28;20034;-56
2022/10/05 07:10:28;;;;;;;7.22;6.28;;;;;;;14.43;79.67;101425.53;4990471;28;20096;-56
2022/10/05 07:13:24;;;;;;;8.77;5.97;;;;;;;14.49;80.14;101424.25;4973120;28;20439;-56
2022/10/05 07:16:27;;;;;;;8.98;5.60;;;;;;;14.50;79.74;101423.28;4973833;28;20729;-56
2022/10/05 07:19:09;;;;;;;9.75;5.90;;;;;;;14.50;79.50;101424.16;5001091;28;20281;-56
2022/10/05 07:22:19;;;;;;;10.30;6.88;;;;;;;14.58;79.23;101428.16;4972794;28;20026;-56
2022/10/05 07:25:07;;;;;;;10.13;6.65;;;;;;;14.66;79.15;101425.78;5004820;28;20654;-56
2022/10/05 07:27:38;;;;;;;8.88;6.45;;;;;;;14.61;79.02;101425.25;4976285;28;20030;-56
2022/10/05 07:30:08;;;;;;;10.55;6.15;;;;;;;14.58;78.88;101417.44;4973875;28;20026;-56
2022/10/05 07:32:37;;;;;;;12.65;5.63;;;;;;;14.65;78.62;101426.75;4991497;28;20031;-56
2022/10/05 07:38:23;;;;;;;13.82;6.70;;;;;;;14.70;79.02;101422.75;4992307;28;20045;-56
2022/10/05 07:41:05;;;;;;;14.38;5.97;;;;;;;14.73;79.82;101425.22;4991028;28;20022;-56
2022/10/05 07:43:47;;;;;;;19.38;7.43;;;;;;;14.76;79.19;101422.34;4973483;28;20070;-56
2022/10/05 07:46:23;;;;;;;8.73;5.85;;;;;;;14.80;78.58;101432.84;4973671;28;20026;-56
2022/10/05 07:48:54;;;;;;;8.88;5.80;;;;;;;14.79;78.67;101431.97;4990524;28;20052;-56
2022/10/05 07:51:25;;;;;;;9.00;5.60;;;;;;;14.86;79.31;101427.91;4998307;28;20480;-56
2022/10/05 07:53:54;;;;;;;7.85;5.47;;;;;;;14.86;78.43;101438.63;5010246;28;20060;-56
2022/10/05 07:56:31;;;;;;;8.57;5.88;;;;;;;14.83;78.87;101432.63;4984098;28;20038;-56
2022/10/05 07:59:06;;;;;;;9.48;5.45;;;;;;;14.85;78.72;101426.16;4990694;28;20186;-56
2022/10/05 08:01:35;;;;;;;9.18;5.45;;;;;;;14.85;78.49;101433.34;4991805;28;20034;-56
2022/10/05 08:04:15;;;;;;;6.68;5.07;;;;;;;14.87;79.17;101437.63;4979643;28;20509;-56
2022/10/05 08:06:55;;;;;;;6.72;5.10;;;;;;;14.97;78.49;101432.47;4978447;28;20030;-56
2022/10/05 08:10:02;;;;;;;6.10;4.88;;;;;;;14.99;78.91;101430.53;4975416;28;20052;-56
2022/10/05 08:12:34;;;;;;;6.10;4.63;;;;;;;15.02;78.22;101434.81;4983587;28;20070;-57
2022/10/05 08:15:37;;;;;;;6.10;4.93;;;;;;;15.09;78.04;101434.28;4969126;28;20572;-56
2022/10/05 08:18:54;;;;;;;7.20;5.00;;;;;;;15.12;77.99;101422.50;4990778;28;20034;-56
2022/10/05 08:21:30;;;;;;;8.13;4.50;;;;;;;15.15;78.11;101427.63;5029284;28;20029;-56
2022/10/05 08:24:14;;;;;;;7.15;4.78;;;;;;;15.17;77.79;101406.91;4986098;28;20034;-57
2022/10/05 08:26:49;;;;;;;8.10;4.75;;;;;;;15.19;78.00;101408.50;4989280;28;20032;-56
2022/10/05 08:29:22;;;;;;;8.40;4.70;;;;;;;15.24;77.37;101408.19;4989403;28;20442;-56
2022/10/05 08:31:55;;;;;;;6.22;4.75;;;;;;;15.28;77.92;101412.34;4989539;28;20018;-56
2022/10/05 08:34:48;;;;;;;6.53;4.43;;;;;;;15.36;77.43;101409.09;4986918;28;20447;-57
2022/10/05 08:37:22;;;;;;;7.10;5.07;;;;;;;15.41;76.77;101399.75;4990252;28;20030;-56
2022/10/05 08:39:50;;;;;;;5.63;4.72;;;;;;;15.44;77.33;101399.53;4972249;28;20121;-57
2022/10/05 08:42:40;;;;;;;4.93;4.22;;;;;;;15.51;77.47;101402.59;4993093;28;20026;-57
2022/10/05 08:45:28;;;;;;;4.97;4.35;;;;;;;15.54;76.87;101402.34;4992147;28;20432;-56
2022/10/05 08:48:19;;;;;;;6.45;4.53;;;;;;;15.54;76.91;101397.00;5009541;28;20438;-56
2022/10/05 08:51:06;;;;;;;6.43;4.32;;;;;;;15.57;77.05;101394.09;4991486;28;20034;-57
2022/10/05 08:53:40;;;;;;;5.47;4.70;;;;;;;15.60;75.71;101393.84;4988309;28;20026;-57
2022/10/05 08:56:39;;;;;;;6.28;4.50;;;;;;;15.64;76.14;101391.78;5009452;28;20053;-57
2022/10/05 08:59:37;;;;;;;7.10;4.50;;;;;;;15.66;75.97;101387.16;5009388;28;20481;-57
2022/10/05 09:02:14;;;;;;;5.10;4.30;;;;;;;15.66;76.94;101382.66;5005654;28;20014;-57
2022/10/05 09:04:43;;;;;;;7.13;4.47;;;;;;;15.76;76.43;101388.19;4988852;28;20031;-56
2022/10/05 09:07:33;;;;;;;11.43;4.35;;;;;;;15.85;76.02;101386.63;4989176;28;20042;-56
2022/10/05 09:10:18;;;;;;;9.23;4.35;;;;;;;15.92;75.87;101384.38;4971979;28;20324;-56
2022/10/05 09:13:08;;;;;;;7.45;4.35;;;;;;;15.96;75.75;101381.31;4994764;28;20029;-56
2022/10/05 09:15:50;;;;;;;6.40;4.05;;;;;;;16.04;75.38;101380.72;5009084;28;20065;-56
2022/10/05 09:18:40;;;;;;;5.70;4.25;;;;;;;16.05;74.64;101369.00;5009190;28;20018;-56
2022/10/05 09:21:24;;;;;;;7.47;4.05;;;;;;;16.09;74.55;101378.56;5009303;28;20038;-57
2022/10/05 09:24:12;;;;;;;4.82;4.32;;;;;;;16.14;75.24;101379.03;5007669;28;20036;-57
2022/10/05 09:26:43;;;;;;;7.13;3.72;;;;;;;16.15;75.19;101366.44;5009331;28;20029;-56
2022/10/05 09:29:15;;;;;;;6.60;3.72;;;;;;;16.20;74.42;101383.06;5008937;28;20022;-57
2022/10/05 09:31:46;;;;;;;8.23;4.00;;;;;;;16.22;74.09;101375.75;4991434;28;20029;-57
2022/10/05 09:34:14;;;;;;;6.10;3.90;;;;;;;16.26;74.23;101388.78;5006787;28;20381;-56
2022/10/05 09:36:51;;;;;;;6.30;3.72;;;;;;;16.31;74.29;101377.72;5008674;28;20032;-56
2022/10/05 09:39:45;;;;;;;6.15;4.05;;;;;;;16.38;73.89;101383.44;5008780;28;20026;-57
2022/10/05 09:42:41;;;;;;;5.63;4.10;;;;;;;16.38;73.81;101378.06;4972628;28;20109;-56
2022/10/05 09:45:30;;;;;;;7.68;4.28;;;;;;;16.35;74.31;101384.53;5007077;28;20034;-56
2022/10/05 09:48:15;;;;;;;7.28;4.18;;;;;;;16.35;74.00;101374.69;5008887;28;20086;-57
2022/10/05 09:50:53;;;;;;;5.45;3.65;;;;;;;16.39;73.58;101374.44;5008005;28;20034;-57
2022/10/05 09:53:22;;;;;;;5.68;3.55;;;;;;;16.41;73.52;101365.25;5008433;28;20021;-56
2022/10/05 09:56:04;;;;;;;7.75;4.85;;;;;;;16.48;73.11;101361.13;4969768;28;20530;-56
2022/10/05 09:59:06;;;;;;;4.57;3.80;;;;;;;16.53;73.02;101366.09;4969537;28;20031;-56
2022/10/05 10:01:45;;;;;;;7.82;4.13;;;;;;;16.59;72.73;101354.91;4969867;28;20118;-56
2022/10/05 10:04:23;;;;;;;8.52;3.80;;;;;;;16.65;73.10;101359.78;4978367;28;20533;-56
2022/10/05 10:07:07;;;;;;;6.55;3.80;;;;;;;16.72;73.33;101342.16;4990781;28;20545;-56
2022/10/05 10:10:00;;;;;;;6.78;3.83;;;;;;;16.85;73.13;101351.94;5008360;28;20380;-56
2022/10/05 10:12:46;;;;;;;4.50;3.90;;;;;;;16.83;71.92;101341.34;5008424;28;20547;-56
2022/10/05 10:15:39;;;;;;;7.00;3.70;;;;;;;16.95;71.78;101342.16;4990083;28;20481;-56
2022/10/05 10:18:22;;;;;;;6.15;3.45;;;;;;;17.14;71.56;101347.72;4990136;28;20049;-56
2022/10/05 10:20:53;;;;;;;9.35;3.80;;;;;;;17.15;71.63;101349.44;4991356;28;20366;-56
2022/10/05 10:23:41;;;;;;;8.63;3.90;;;;;;;17.30;71.20;101333.03;4992167;28;20031;-56
2022/10/05 10:26:34;;;;;;;6.07;3.83;;;;;;;17.45;70.72;101327.19;4991980;28;20084;-57
2022/10/05 10:29:28;;;;;;;5.07;3.20;;;;;;;17.59;69.99;101325.16;4993042;28;20039;-56
2022/10/05 10:32:12;;;;;;;7.40;3.67;;;;;;;17.69;69.36;101326.09;4958606;28;20026;-56
2022/10/05 10:34:56;;;;;;;5.57;3.28;;;;;;;17.93;68.55;101321.31;4975940;28;20091;-56
2022/10/05 10:37:49;;;;;;;3.78;3.35;;;;;;;17.98;68.64;101323.63;4991969;28;20034;-56
2022/10/05 10:40:18;;;;;;;6.00;3.20;;;;;;;18.07;68.46;101321.97;4992856;28;20060;-56
2022/10/05 10:42:57;;;;;;;7.20;4.00;;;;;;;18.31;68.33;101321.66;4991989;28;20036;-56
2022/10/05 10:45:54;;;;;;;4.45;2.92;;;;;;;18.52;67.45;101314.34;4991717;28;20033;-56
2022/10/05 10:48:29;;;;;;;4.32;2.95;;;;;;;18.71;66.66;101310.88;4991628;28;20489;-57
2022/10/05 10:51:03;;;;;;;6.03;3.55;;;;;;;18.70;65.19;101311.00;4975410;28;20030;-56
2022/10/05 10:54:06;;;;;;;4.32;3.20;;;;;;;18.63;66.22;101302.63;4991711;28;20034;-56
2022/10/05 10:56:43;;;;;;;5.78;2.80;;;;;;;18.60;66.17;101300.19;5011187;28;20379;-56
2022/10/05 10:59:15;;;;;;;3.53;2.97;;;;;;;18.83;65.47;101288.22;5010811;28;20084;-56
2022/10/05 11:02:09;;;;;;;7.15;3.25;;;;;;;19.14;65.05;101282.69;5011250;28;20036;-57
2022/10/05 11:04:56;;;;;;;5.15;2.72;;;;;;;18.98;65.37;101283.28;5004656;28;21020;-56
2022/10/05 11:07:49;;;;;;;3.75;2.65;;;;;;;19.38;64.23;101274.16;4991377;28;20062;-57
2022/10/05 11:10:40;;;;;;;5.40;2.83;;;;;;;19.54;63.87;101272.75;4991435;28;20448;-56
2022/10/05 11:13:36;;;;;;;3.65;2.40;;;;;;;19.29;63.40;101275.91;4991346;28;20041;-57
2022/10/05 11:16:39;;;;;;;5.00;2.30;;;;;;;19.33;62.95;101275.63;5004570;28;20129;-56
2022/10/05 11:19:30;;;;;;;4.70;2.70;;;;;;;19.26;63.93;101286.09;5010241;28;20029;-56
2022/10/05 11:22:12;;;;;;;3.58;2.40;;;;;;;19.23;64.12;101281.00;5008820;28;20041;-56
2022/10/05 11:25:02;;;;;;;4.18;2.78;;;;;;;19.21;64.04;101281.16;4993702;28;20033;-56
2022/10/05 11:27:42;;;;;;;3.50;2.40;;;;;;;19.10;63.78;101269.66;4989774;28;20050;-56
2022/10/05 11:30:27;;;;;;;4.05;2.33;;;;;;;19.23;64.61;101287.25;4992081;28;20062;-57
2022/10/05 11:34:03;;;;;;;5.65;2.45;;;;;;;19.38;63.40;101257.13;4990611;28;20068;-56
2022/10/05 11:36:36;;;;;;;4.20;1.95;;;;;;;19.66;63.13;101256.28;4991811;28;20045;-56
2022/10/05 11:39:24;;;;;;;4.22;2.75;;;;;;;19.69;62.44;101257.84;4989944;28;20034;-56
2022/10/05 11:42:08;;;;;;;4.43;2.28;;;;;;;19.90;61.24;101250.38;4974339;28;20121;-56
2022/10/05 11:44:46;;;;;;;3.00;2.15;;;;;;;20.67;59.36;101250.16;4973717;28;20022;-56
2022/10/05 11:47:23;;;;;;;6.10;2.28;;;;;;;21.07;57.64;101228.06;4990472;28;20034;-57
2022/10/05 11:49:58;;;;;;;2.47;2.28;;;;;;;21.24;57.64;101256.13;4973893;28;20423;-57
2022/10/05 11:52:23;;;;;;;5.03;2.28;;;;;;;21.14;57.61;101231.00;4973265;28;20042;-57
2022/10/05 11:55:16;;;;;;;3.85;2.05;;;;;;;21.34;57.70;101229.81;4990737;28;20036;-56
2022/10/05 11:57:49;;;;;;;6.13;2.20;;;;;;;21.49;56.23;101241.78;4990546;28;20030;-57
2022/10/05 12:00:15;;;;;;;4.05;2.20;;;;;;;21.88;54.71;101226.97;4996118;28;20501;-56
2022/10/05 12:03:10;;;;;;;8.40;2.00;;;;;;;22.83;53.23;101225.78;4993016;28;20034;-57
2022/10/05 12:05:54;;;;;;;4.35;1.83;;;;;;;23.97;49.65;101224.88;5001720;28;20026;-56
2022/10/05 12:08:57;;;;;;;3.08;1.90;;;;;;;24.19;50.14;101197.94;5010350;28;20185;-57
2022/10/05 12:11:45;;;;;;;4.72;1.88;;;;;;;24.62;49.08;101201.97;4992407;28;20033;-57
2022/10/05 12:14:32;;;;;;;2.83;1.57;;;;;;;24.34;47.21;101201.59;5007916;28;20034;-57
2022/10/05 12:17:17;;;;;;;3.55;1.75;;;;;;;24.05;48.18;101201.41;4990296;28;20306;-57
2022/10/05 12:19:48;;;;;;;3.58;1.67;;;;;;;24.94;46.55;101197.28;4990230;28;20038;-57
2022/10/05 12:22:20;;;;;;;5.50;1.70;;;;;;;25.73;44.56;101197.75;4972990;28;20461;-57
2022/10/05 12:25:00;;;;;;;3.03;1.63;;;;;;;26.52;43.53;101185.38;4990171;28;20038;-57
2022/10/05 12:27:32;;;;;;;1.60;1.35;;;;;;;26.60;41.77;101190.72;5004425;28;20374;-57